createdAt,value
2018-11-22T00:01:13.404Z,1.86
2018-11-22T00:04:02.183Z,2.11
2018-11-22T00:06:50.990Z,0.36
2018-11-22T00:09:39.760Z,2.15
2018-11-22T00:12:47.523Z,2.13
2018-11-22T00:15:36.321Z,2.10
2018-11-22T00:18:44.089Z,2.08
2018-11-22T00:21:51.863Z,1.99
2018-11-22T00:24:40.657Z,2.06
2018-11-22T00:27:48.434Z,1.99
2018-11-22T00:30:56.497Z,2.10
2018-11-22T00:34:04.241Z,2.12
2018-11-22T00:36:53.043Z,1.60
2018-11-22T00:39:41.817Z,2.09
2018-11-22T00:42:49.984Z,2.04
2018-11-22T00:45:38.788Z,1.54
2018-11-22T00:48:46.539Z,2.02
2018-11-22T00:51:35.397Z,2.04
2018-11-22T00:54:24.181Z,2.04
2018-11-22T00:57:12.985Z,2.08
2018-11-22T01:00:01.753Z,2.13
2018-11-22T01:02:50.694Z,2.06
2018-11-22T01:05:58.447Z,2.00
2018-11-22T01:08:47.229Z,1.98
2018-11-22T01:11:36.016Z,1.98
2018-11-22T01:14:24.799Z,1.99
2018-11-22T01:17:13.646Z,1.99
2018-11-22T01:20:21.420Z,2.04
2018-11-22T01:23:29.164Z,2.14
2018-11-22T01:26:17.960Z,0.72
2018-11-22T01:29:06.755Z,2.08
2018-11-22T01:31:55.562Z,2.04
2018-11-22T01:34:44.379Z,2.05
2018-11-22T01:37:33.434Z,2.07
2018-11-22T01:40:23.617Z,2.06
2018-11-22T01:43:12.397Z,2.03
2018-11-22T01:46:01.211Z,0.68
2018-11-22T01:48:49.993Z,2.04
2018-11-22T01:51:38.764Z,1.97
2018-11-22T01:54:27.623Z,1.96
2018-11-22T01:57:16.393Z,1.92
2018-11-22T02:00:07.865Z,1.97
2018-11-22T02:02:56.622Z,1.93
2018-11-22T02:05:45.407Z,1.36
2018-11-22T02:08:34.187Z,-0.13
2018-11-22T02:11:42.306Z,1.90
2018-11-22T02:14:31.079Z,1.89
2018-11-22T02:17:19.910Z,1.85
2018-11-22T02:20:10.863Z,1.81
2018-11-22T02:22:59.952Z,1.78
2018-11-22T02:25:41.272Z,1.84
2018-11-22T02:28:30.361Z,1.62
2018-11-22T02:31:19.474Z,0.62
2018-11-22T02:34:08.350Z,1.85
2018-11-22T02:36:57.120Z,1.90
2018-11-22T02:39:45.914Z,1.98
2018-11-22T02:42:34.741Z,1.95
2018-11-22T02:45:42.812Z,1.85
2018-11-22T02:48:31.579Z,1.60
2018-11-22T02:51:20.871Z,1.75
2018-11-22T02:54:10.049Z,1.71
2018-11-22T02:56:59.151Z,1.73
2018-11-22T02:59:48.002Z,1.66
2018-11-22T03:02:36.778Z,0.73
2018-11-22T03:05:25.552Z,1.64
2018-11-22T03:08:14.885Z,1.68
2018-11-22T03:11:03.902Z,1.68
2018-11-22T03:13:52.946Z,1.33
2018-11-22T03:16:42.045Z,1.53
2018-11-22T03:19:31.135Z,1.49
2018-11-22T03:22:19.949Z,1.53
2018-11-22T03:25:10.209Z,1.55
2018-11-22T03:27:58.974Z,1.60
2018-11-22T03:30:47.776Z,-0.41
2018-11-22T03:33:36.579Z,1.65
2018-11-22T03:36:25.357Z,1.67
2018-11-22T03:39:14.204Z,1.62
2018-11-22T03:42:03.016Z,1.63
2018-11-22T03:44:51.856Z,1.62
2018-11-22T03:47:40.720Z,1.68
2018-11-22T03:50:30.034Z,1.60
2018-11-22T03:53:18.871Z,1.61
2018-11-22T03:56:07.669Z,-0.29
2018-11-22T03:58:56.454Z,1.69
2018-11-22T04:01:45.288Z,1.00
2018-11-22T04:04:34.045Z,1.76
2018-11-22T04:07:23.150Z,1.79
2018-11-22T04:10:14.701Z,-0.21
2018-11-22T04:13:03.482Z,1.79
2018-11-22T04:15:52.257Z,1.83
2018-11-22T04:18:41.105Z,1.04
2018-11-22T04:21:34.879Z,1.88
2018-11-22T04:24:23.693Z,1.81
2018-11-22T04:27:12.476Z,0.76
2018-11-22T04:30:01.575Z,1.83
2018-11-22T04:32:50.599Z,1.84
2018-11-22T04:35:39.412Z,1.82
2018-11-22T04:38:28.197Z,1.72
2018-11-22T04:41:17.000Z,1.77
2018-11-22T04:44:05.917Z,1.74
2018-11-22T04:47:13.689Z,1.66
2018-11-22T04:50:02.520Z,1.75
2018-11-22T04:52:51.282Z,1.75
2018-11-22T04:55:40.130Z,1.66
2018-11-22T04:58:28.915Z,1.65
2018-11-22T05:01:17.718Z,0.59
2018-11-22T05:04:06.502Z,1.75
2018-11-22T05:06:55.276Z,1.76
2018-11-22T05:09:44.088Z,1.68
2018-11-22T05:12:32.856Z,1.72
2018-11-22T05:15:23.063Z,1.75
2018-11-22T05:18:20.062Z,1.78
2018-11-22T05:21:08.864Z,1.78
2018-11-22T05:23:57.634Z,-0.04
2018-11-22T05:26:46.522Z,1.72
2018-11-22T05:29:35.309Z,-0.20
2018-11-22T05:32:24.122Z,1.77
2018-11-22T05:35:13.855Z,1.76
2018-11-22T05:38:02.651Z,1.79
2018-11-22T05:40:51.429Z,1.72
2018-11-22T05:43:40.243Z,1.76
2018-11-22T05:46:29.014Z,1.74
2018-11-22T05:49:18.149Z,0.09
2018-11-22T05:52:07.747Z,1.69
2018-11-22T05:54:56.527Z,1.73
2018-11-22T05:57:45.759Z,0.35
2018-11-22T06:00:34.574Z,1.82
2018-11-22T06:03:23.362Z,0.21
2018-11-22T06:06:12.144Z,1.86
2018-11-22T06:09:00.910Z,1.79
2018-11-22T06:11:49.731Z,1.79
2018-11-22T06:14:38.516Z,0.84
2018-11-22T06:17:27.728Z,1.76
2018-11-22T06:20:18.064Z,0.40
2018-11-22T06:23:06.863Z,1.72
2018-11-22T06:25:55.660Z,1.72
2018-11-22T06:28:44.486Z,1.75
2018-11-22T06:31:33.948Z,1.70
2018-11-22T06:34:22.766Z,1.77
2018-11-22T06:37:11.878Z,1.81
2018-11-22T06:40:00.703Z,1.76
2018-11-22T06:42:50.905Z,1.85
2018-11-22T06:45:39.735Z,1.77
2018-11-22T06:48:28.582Z,0.05
2018-11-22T06:51:36.345Z,1.83
2018-11-22T06:54:25.161Z,1.82
2018-11-22T06:57:14.278Z,1.86
2018-11-22T07:00:03.051Z,1.88
2018-11-22T07:02:53.152Z,1.90
2018-11-22T07:05:41.945Z,1.85
2018-11-22T07:08:30.752Z,1.89
2018-11-22T07:11:19.864Z,1.85
2018-11-22T07:14:09.034Z,1.92
2018-11-22T07:16:57.806Z,0.11
2018-11-22T07:19:46.900Z,1.82
2018-11-22T07:22:35.725Z,1.80
2018-11-22T07:25:25.386Z,1.84
2018-11-22T07:28:14.238Z,1.86
2018-11-22T07:31:03.460Z,1.96
2018-11-22T07:33:52.367Z,1.95
2018-11-22T07:36:41.148Z,1.93
2018-11-22T07:39:30.656Z,1.90
2018-11-22T07:42:19.445Z,1.14
2018-11-22T07:45:10.884Z,1.93
2018-11-22T07:48:00.687Z,1.96
2018-11-22T07:50:49.512Z,1.98
2018-11-22T07:53:38.308Z,2.03
2018-11-22T07:56:27.112Z,2.05
2018-11-22T07:59:15.917Z,2.07
2018-11-22T08:02:05.130Z,2.06
2018-11-22T08:04:54.275Z,2.01
2018-11-22T08:07:43.612Z,0.43
2018-11-22T08:10:32.371Z,2.08
2018-11-22T08:13:21.178Z,2.07
2018-11-22T08:16:09.973Z,2.04
2018-11-22T08:18:58.758Z,2.00
2018-11-22T08:22:06.597Z,2.09
2018-11-22T08:24:56.263Z,2.10
2018-11-22T08:27:44.955Z,2.08
2018-11-22T08:30:33.761Z,2.13
2018-11-22T08:33:22.530Z,1.34
2018-11-22T08:36:11.349Z,2.14
2018-11-22T08:39:00.144Z,2.17
2018-11-22T08:44:37.117Z,2.22
2018-11-22T08:47:25.972Z,2.25
2018-11-22T08:50:16.093Z,1.98
2018-11-22T08:53:05.475Z,1.49
2018-11-22T08:55:54.216Z,2.19
2018-11-22T08:58:43.027Z,1.02
2018-11-22T09:01:32.113Z,2.16
2018-11-22T09:04:13.934Z,2.07
2018-11-22T09:07:02.740Z,1.00
2018-11-22T09:10:10.470Z,2.08
2018-11-22T09:13:00.233Z,0.41
2018-11-22T09:15:49.373Z,1.30
2018-11-22T09:18:38.161Z,2.12
2018-11-22T09:21:26.927Z,2.28
2018-11-22T09:24:15.708Z,1.35
2018-11-22T09:27:04.872Z,2.11
2018-11-22T09:29:53.668Z,2.17
2018-11-22T09:32:43.189Z,0.39
2018-11-22T09:35:33.337Z,2.34
2018-11-22T09:38:22.133Z,2.47
2018-11-22T09:41:10.924Z,2.44
2018-11-22T09:43:59.741Z,2.46
2018-11-22T09:46:48.834Z,2.53
2018-11-22T09:49:37.656Z,2.56
2018-11-22T09:52:26.430Z,2.66
2018-11-22T09:55:15.682Z,1.97
2018-11-22T09:58:04.464Z,2.77
2018-11-22T10:00:53.234Z,1.06
2018-11-22T10:03:42.300Z,2.10
2018-11-22T10:06:31.120Z,3.00
2018-11-22T10:09:19.963Z,3.04
2018-11-22T10:12:09.282Z,2.81
2018-11-22T10:14:58.106Z,3.07
2018-11-22T10:17:46.878Z,3.10
2018-11-22T10:20:35.971Z,3.09
2018-11-22T10:23:24.805Z,3.11
2018-11-22T10:26:13.582Z,2.96
2018-11-22T10:29:02.388Z,2.99
2018-11-22T10:31:51.167Z,2.95
2018-11-22T10:34:39.975Z,2.52
2018-11-22T10:37:28.746Z,3.03
2018-11-22T10:40:36.779Z,2.95
2018-11-22T10:43:26.170Z,3.00
2018-11-22T10:46:14.977Z,2.81
2018-11-22T10:49:03.753Z,3.01
2018-11-22T10:51:52.532Z,2.96
2018-11-22T10:54:41.316Z,3.10
2018-11-22T10:57:30.176Z,1.35
2018-11-22T11:00:41.722Z,3.35
2018-11-22T11:03:49.487Z,2.60
2018-11-22T11:06:39.634Z,3.48
2018-11-22T11:09:28.397Z,3.59
2018-11-22T11:12:17.202Z,3.11
2018-11-22T11:15:06.453Z,3.68
2018-11-22T11:17:55.294Z,3.71
2018-11-22T11:20:44.078Z,3.74
2018-11-22T11:23:32.921Z,3.70
2018-11-22T11:26:21.879Z,2.59
2018-11-22T11:29:12.789Z,3.63
2018-11-22T11:31:59.727Z,3.64
2018-11-22T11:34:48.601Z,3.65
2018-11-22T11:37:37.389Z,3.68
2018-11-22T11:40:30.747Z,3.67
2018-11-22T11:43:19.517Z,3.63
2018-11-22T11:46:08.486Z,3.68
2018-11-22T11:48:57.314Z,3.75
2018-11-22T11:51:46.423Z,3.80
2018-11-22T11:54:35.220Z,3.77
2018-11-22T11:57:24.185Z,3.84
2018-11-22T12:00:51.299Z,3.85
2018-11-22T12:03:40.093Z,2.98
2018-11-22T12:06:28.888Z,3.82
2018-11-22T12:09:17.688Z,3.86
2018-11-22T12:12:06.483Z,3.89
2018-11-22T12:14:55.654Z,3.83
2018-11-22T12:17:44.458Z,3.91
2018-11-22T12:20:33.594Z,3.72
2018-11-22T12:23:22.408Z,3.92
2018-11-22T12:26:11.191Z,3.87
2018-11-22T12:28:59.973Z,3.91
2018-11-22T12:31:48.758Z,3.93
2018-11-22T12:34:56.557Z,3.92
2018-11-22T12:38:05.033Z,3.93
2018-11-22T12:40:53.885Z,3.86
2018-11-22T12:43:43.046Z,3.92
2018-11-22T12:46:32.122Z,3.92
2018-11-22T12:49:20.970Z,4.00
2018-11-22T12:52:09.763Z,2.07
2018-11-22T12:54:58.785Z,3.93
2018-11-22T12:57:47.571Z,3.93
2018-11-22T13:00:37.055Z,3.93
2018-11-22T13:03:25.888Z,3.81
2018-11-22T13:06:14.658Z,3.87
2018-11-22T13:09:03.533Z,3.90
2018-11-22T13:11:52.275Z,2.21
2018-11-22T13:14:41.045Z,3.72
2018-11-22T13:17:29.865Z,1.89
2018-11-22T13:20:20.135Z,3.49
2018-11-22T13:23:08.926Z,3.50
2018-11-22T13:25:57.703Z,3.56
2018-11-22T13:28:46.487Z,3.60
2018-11-22T13:31:35.299Z,3.69
2018-11-22T13:34:24.100Z,3.72
2018-11-22T13:37:12.862Z,3.84
2018-11-22T13:40:01.664Z,3.85
2018-11-22T13:42:51.261Z,3.77
2018-11-22T13:48:34.628Z,3.76
2018-11-22T13:51:23.686Z,3.74
2018-11-22T13:54:12.796Z,3.63
2018-11-22T13:57:01.934Z,3.66
2018-11-22T13:59:51.024Z,3.67
2018-11-22T14:02:40.438Z,3.61
2018-11-22T14:05:29.194Z,3.67
2018-11-22T14:08:17.986Z,3.71
2018-11-22T14:11:13.531Z,3.67
2018-11-22T14:13:55.940Z,1.64
2018-11-22T14:16:44.702Z,3.50
2018-11-22T14:19:33.482Z,3.54
2018-11-22T14:22:22.576Z,3.48
2018-11-22T14:25:12.530Z,3.37
2018-11-22T14:28:01.314Z,3.27
2018-11-22T14:30:50.107Z,2.25
2018-11-22T14:33:39.229Z,3.33
2018-11-22T14:36:27.994Z,3.39
2018-11-22T14:39:16.812Z,2.08
2018-11-22T14:42:05.799Z,3.33
2018-11-22T14:44:54.595Z,3.30
2018-11-22T14:47:44.736Z,3.23
2018-11-22T14:50:35.196Z,3.27
2018-11-22T14:53:24.005Z,3.03
2018-11-22T14:56:12.772Z,3.27
2018-11-22T14:59:01.863Z,2.31
2018-11-22T15:01:50.631Z,3.30
2018-11-22T15:04:39.747Z,3.17
2018-11-22T15:07:28.850Z,2.98
2018-11-22T15:10:17.873Z,3.30
2018-11-22T15:13:06.918Z,3.29
2018-11-22T15:15:55.714Z,3.20
2018-11-22T15:18:44.476Z,1.52
2018-11-22T15:21:33.262Z,3.22
2018-11-22T15:24:22.080Z,3.25
2018-11-22T15:27:11.253Z,3.28
2018-11-22T15:30:00.085Z,3.28
2018-11-22T15:32:48.873Z,3.29
2018-11-22T15:35:37.643Z,3.21
2018-11-22T15:38:26.441Z,3.21
2018-11-22T15:41:15.211Z,3.12
2018-11-22T15:44:04.292Z,1.45
2018-11-22T15:46:53.053Z,3.00
2018-11-22T15:49:41.830Z,1.81
2018-11-22T15:52:30.614Z,3.03
2018-11-22T15:55:21.136Z,3.06
2018-11-22T15:58:08.485Z,3.03
2018-11-22T16:00:57.275Z,3.07
2018-11-22T16:03:46.467Z,3.01
2018-11-22T16:06:35.275Z,2.95
2018-11-22T16:09:24.062Z,2.95
2018-11-22T16:12:12.861Z,2.99
2018-11-22T16:15:02.001Z,2.94
2018-11-22T16:17:50.799Z,1.85
2018-11-22T16:20:39.847Z,2.84
2018-11-22T16:23:28.651Z,2.73
2018-11-22T16:26:17.450Z,2.74
2018-11-22T16:29:06.397Z,2.86
2018-11-22T16:31:55.170Z,2.81
2018-11-22T16:34:43.963Z,2.87
2018-11-22T16:37:32.737Z,2.95
2018-11-22T16:40:22.905Z,1.15
2018-11-22T16:43:11.670Z,2.99
2018-11-22T16:46:00.464Z,3.00
2018-11-22T16:48:49.254Z,3.09
2018-11-22T16:51:38.043Z,3.18
2018-11-22T16:54:26.825Z,2.30
2018-11-22T16:57:15.964Z,3.20
2018-11-22T17:00:05.483Z,3.14
2018-11-22T17:02:55.390Z,3.21
2018-11-22T17:05:44.796Z,3.20
2018-11-22T17:08:33.564Z,1.43
2018-11-22T17:11:23.155Z,3.14
2018-11-22T17:14:11.954Z,3.22
2018-11-22T17:17:00.760Z,3.20
2018-11-22T17:19:49.591Z,3.29
2018-11-22T17:22:38.785Z,3.28
2018-11-22T17:25:28.836Z,1.80
2018-11-22T17:28:17.598Z,1.69
2018-11-22T17:31:06.402Z,2.98
2018-11-22T17:33:55.303Z,3.25
2018-11-22T17:36:44.101Z,3.11
2018-11-22T17:39:32.888Z,3.14
2018-11-22T17:42:21.675Z,3.02
2018-11-22T17:45:12.795Z,3.05
2018-11-22T17:48:01.743Z,1.83
2018-11-22T17:50:50.823Z,2.96
2018-11-22T17:53:39.600Z,3.27
2018-11-22T17:56:28.400Z,3.14
2018-11-22T17:59:17.182Z,3.10
2018-11-22T18:02:06.431Z,2.90
2018-11-22T18:04:55.205Z,1.74
2018-11-22T18:07:36.732Z,3.07
2018-11-22T18:10:27.030Z,3.02
2018-11-22T18:13:15.837Z,3.05
2018-11-22T18:16:04.704Z,2.95
2018-11-22T18:18:53.490Z,2.96
2018-11-22T18:21:42.289Z,2.95
2018-11-22T18:24:31.530Z,2.74
2018-11-22T18:27:20.696Z,2.74
2018-11-22T18:30:11.890Z,2.77
2018-11-22T18:33:02.282Z,2.70
2018-11-22T18:35:51.048Z,0.87
2018-11-22T18:38:39.862Z,2.63
2018-11-22T18:41:28.630Z,0.81
2018-11-22T18:44:17.424Z,2.79
2018-11-22T18:47:06.583Z,2.74
2018-11-22T18:49:55.403Z,2.71
2018-11-22T18:52:44.694Z,0.70
2018-11-22T18:55:33.497Z,2.65
2018-11-22T18:58:22.299Z,0.68
2018-11-22T19:01:04.417Z,2.66
2018-11-22T19:03:53.296Z,1.62
2018-11-22T19:06:42.208Z,2.57
2018-11-22T19:09:31.221Z,2.63
2018-11-22T19:12:20.177Z,2.66
2018-11-22T19:15:10.905Z,2.62
2018-11-22T19:17:59.793Z,2.71
2018-11-22T19:20:48.583Z,2.78
2018-11-22T19:23:37.390Z,2.79
2018-11-22T19:26:26.211Z,1.40
2018-11-22T19:29:14.995Z,2.75
2018-11-22T19:32:03.830Z,2.77
2018-11-22T19:34:52.704Z,2.67
2018-11-22T19:37:41.880Z,2.60
2018-11-22T19:40:34.999Z,2.68
2018-11-22T19:43:24.275Z,2.64
2018-11-22T19:46:14.032Z,2.69
2018-11-22T19:49:02.921Z,2.05
2018-11-22T19:51:52.307Z,2.68
2018-11-22T19:54:41.468Z,2.12
2018-11-22T19:57:30.312Z,2.68
2018-11-22T20:00:20.136Z,2.66
2018-11-22T20:03:10.197Z,0.82
2018-11-22T20:05:59.778Z,2.53
2018-11-22T20:08:49.611Z,2.60
2018-11-22T20:11:38.972Z,2.61
2018-11-22T20:14:28.601Z,2.61
2018-11-22T20:17:18.359Z,2.48
2018-11-22T20:20:08.924Z,2.52
2018-11-22T20:22:58.775Z,2.49
2018-11-22T20:25:48.864Z,2.47
2018-11-22T20:28:38.695Z,2.48
2018-11-22T20:31:29.078Z,2.50
2018-11-22T20:34:18.888Z,2.47
2018-11-22T20:37:08.011Z,2.55
2018-11-22T20:39:57.961Z,2.04
2018-11-22T20:42:47.782Z,2.53
2018-11-22T20:45:41.063Z,2.52
2018-11-22T20:48:26.364Z,2.51
2018-11-22T20:51:16.125Z,2.55
2018-11-22T20:54:05.950Z,2.26
2018-11-22T20:56:55.367Z,0.80
2018-11-22T20:59:44.497Z,2.56
2018-11-22T21:02:33.607Z,2.62
2018-11-22T21:05:23.136Z,2.63
2018-11-22T21:08:11.967Z,2.60
2018-11-22T21:11:00.852Z,2.62
2018-11-22T21:13:50.047Z,0.89
2018-11-22T21:16:38.941Z,2.65
2018-11-22T21:19:27.701Z,2.52
2018-11-22T21:22:16.706Z,2.33
2018-11-22T21:25:06.831Z,2.26
2018-11-22T21:27:56.166Z,2.35
2018-11-22T21:30:44.956Z,2.35
2018-11-22T21:33:34.706Z,2.27
2018-11-22T21:36:23.168Z,2.38
2018-11-22T21:39:13.425Z,2.29
2018-11-22T21:42:02.860Z,0.62
2018-11-22T21:44:51.857Z,2.13
2018-11-22T21:47:40.878Z,1.91
2018-11-22T21:50:30.079Z,1.83
2018-11-22T21:53:18.867Z,1.82
2018-11-22T21:56:07.673Z,1.85
2018-11-22T21:58:56.444Z,1.88
2018-11-22T22:01:45.679Z,2.02
2018-11-22T22:04:34.470Z,1.44
2018-11-22T22:07:23.298Z,2.29
2018-11-22T22:10:12.153Z,0.50
2018-11-22T22:13:00.952Z,2.44
2018-11-22T22:15:50.036Z,2.56
2018-11-22T22:18:39.239Z,2.68
2018-11-22T22:21:28.014Z,2.66
2018-11-22T22:24:16.805Z,2.67
2018-11-22T22:27:05.784Z,2.74
2018-11-22T22:29:54.585Z,2.74
2018-11-22T22:32:44.165Z,2.77
2018-11-22T22:35:32.970Z,2.75
2018-11-22T22:38:21.737Z,2.15
2018-11-22T22:41:10.551Z,2.66
2018-11-22T22:43:59.321Z,2.65
2018-11-22T22:46:48.440Z,2.59
2018-11-22T22:49:37.217Z,2.50
2018-11-22T22:52:26.070Z,2.29
2018-11-22T22:55:15.235Z,2.14
2018-11-22T22:58:04.009Z,2.09
2018-11-22T23:00:52.799Z,1.74
2018-11-22T23:03:41.607Z,1.68
2018-11-22T23:06:30.393Z,1.61
2018-11-22T23:09:19.151Z,1.56
2018-11-22T23:12:07.935Z,1.53
2018-11-22T23:14:56.720Z,1.50
2018-11-22T23:17:45.534Z,1.41
2018-11-22T23:20:35.487Z,1.34
2018-11-22T23:23:24.294Z,1.27
2018-11-22T23:26:13.445Z,1.17
2018-11-22T23:29:02.247Z,1.06
2018-11-22T23:31:51.331Z,1.05
2018-11-22T23:34:40.123Z,0.96
2018-11-22T23:37:28.920Z,-1.23
2018-11-22T23:40:36.679Z,0.66
2018-11-22T23:43:25.881Z,0.56
2018-11-22T23:46:14.694Z,0.46
2018-11-22T23:49:03.487Z,0.46
2018-11-22T23:51:52.635Z,0.42
2018-11-22T23:54:41.712Z,0.30
2018-11-22T23:57:30.813Z,0.28
